Time;durP1;ratioP1;P1;durP2;ratioP2;P2;SDS_P1;SDS_P2;PMS_P1;PMS_P2;Temp;Humidity;BMP_temperature;BMP_pressure;BME280_temperature;BME280_humidity;BME280_pressure;Samples;Min_cycle;Max_cycle;Signal;HPM_P1;HPM_P2
2021/07/27 00:02:31;;;;;;;;;;;16.30;99.90;;;;;;6162889;28;19953;-79
2021/07/27 00:05:32;;;;;;;;;;;16.20;99.90;;;;;;6097949;29;20359;-80
2021/07/27 00:08:34;;;;;;;;;;;16.20;99.90;;;;;;6161692;28;19919;-80
2021/07/27 00:11:35;;;;;;;;;;;16.20;99.90;;;;;;6177771;28;19907;-80
2021/07/27 00:14:36;;;;;;;;;;;16.20;99.90;;;;;;6162528;28;20380;-80
2021/07/27 00:17:36;;;;;;;;;;;16.20;99.90;;;;;;6179053;28;19903;-80
2021/07/27 00:20:37;;;;;;;;;;;16.20;99.90;;;;;;6178556;28;19935;-79
2021/07/27 00:23:38;;;;;;;;;;;16.30;99.90;;;;;;6096085;29;19911;-79
2021/07/27 00:26:39;;;;;;;;;;;16.20;99.90;;;;;;6095823;28;19912;-79
2021/07/27 00:29:40;;;;;;;;;;;16.20;99.90;;;;;;6092578;28;19978;-79
2021/07/27 00:32:40;;;;;;;;;;;16.10;99.90;;;;;;6073334;29;19915;-80
2021/07/27 00:35:41;;;;;;;;;;;16.20;99.90;;;;;;6073687;29;19917;-79
2021/07/27 00:38:42;;;;;;;;;;;16.30;99.90;;;;;;6080290;28;20364;-80
2021/07/27 00:41:42;;;;;;;;;;;16.10;99.90;;;;;;6073542;29;19915;-80
2021/07/27 00:44:43;;;;;;;;;;;16.10;99.90;;;;;;6074616;29;20274;-79
2021/07/27 00:47:44;;;;;;;;;;;16.00;99.90;;;;;;6073138;29;19910;-80
2021/07/27 00:50:44;;;;;;;;;;;16.00;99.90;;;;;;6073228;29;20010;-79
2021/07/27 00:53:44;;;;;;;;;;;16.00;99.90;;;;;;6073207;29;20352;-79
2021/07/27 00:56:45;;;;;;;;;;;16.00;99.90;;;;;;6073201;29;19915;-82
2021/07/27 00:59:45;;;;;;;;;;;16.00;99.90;;;;;;6073109;29;19954;-79
2021/07/27 01:02:46;;;;;;;;;;;15.90;99.90;;;;;;6074321;29;19911;-80
2021/07/27 01:05:46;;;;;;;;;;;16.10;99.90;;;;;;6074288;29;19918;-80
2021/07/27 01:08:47;;;;;;;;;;;16.00;99.90;;;;;;6072426;29;19931;-80
2021/07/27 01:11:47;;;;;;;;;;;16.20;99.90;;;;;;6057134;29;19908;-80
2021/07/27 01:14:48;;;;;;;;;;;16.00;99.90;;;;;;6079882;29;19993;-80
2021/07/27 01:17:50;;;;;;;;;;;15.90;99.90;;;;;;6096760;29;20312;-79
2021/07/27 01:43:49;;;;;;;;;;;15.70;99.90;;;;;;6072735;29;19927;-80
2021/07/27 01:46:50;;;;;;;;;;;15.60;99.90;;;;;;6072112;29;19922;-79
2021/07/27 01:49:50;;;;;;;;;;;15.50;99.90;;;;;;6072188;29;19919;-79
2021/07/27 01:52:58;;;;;;;;;;;15.50;99.90;;;;;;6073269;29;19912;-79
2021/07/27 01:55:59;;;;;;;;;;;15.50;99.90;;;;;;6056945;29;19977;-80
2021/07/27 01:59:00;;;;;;;;;;;15.40;99.90;;;;;;6056290;29;19919;-79
2021/07/27 02:02:00;;;;;;;;;;;15.60;99.90;;;;;;6073692;29;20353;-80
2021/07/27 02:05:01;;;;;;;;;;;15.40;99.90;;;;;;6071927;29;19949;-79
2021/07/27 02:08:01;;;;;;;;;;;15.70;99.90;;;;;;6071750;29;20370;-79
2021/07/27 02:11:04;;;;;;;;;;;15.40;99.90;;;;;;6072992;29;19915;-80
2021/07/27 02:14:05;;;;;;;;;;;15.40;99.90;;;;;;6059480;29;19911;-79
2021/07/27 02:17:05;;;;;;;;;;;15.40;99.90;;;;;;6139635;28;19904;-80
2021/07/27 02:20:06;;;;;;;;;;;15.40;99.90;;;;;;6086508;29;19930;-79
2021/07/27 02:23:06;;;;;;;;;;;15.40;99.90;;;;;;6095300;28;20345;-80
2021/07/27 02:26:08;;;;;;;;;;;15.40;99.90;;;;;;6072702;29;20326;-79
2021/07/27 02:29:11;;;;;;;;;;;15.40;99.90;;;;;;6088962;29;19914;-80
2021/07/27 02:32:11;;;;;;;;;;;15.40;99.90;;;;;;6092247;29;20002;-79
2021/07/27 02:35:12;;;;;;;;;;;15.50;99.90;;;;;;6073160;29;19903;-80
2021/07/27 02:38:12;;;;;;;;;;;15.60;99.90;;;;;;6056133;29;19911;-79
2021/07/27 02:41:13;;;;;;;;;;;15.60;99.90;;;;;;6056021;29;19962;-79
2021/07/27 02:44:13;;;;;;;;;;;15.60;99.90;;;;;;6074573;29;19912;-79
2021/07/27 02:47:14;;;;;;;;;;;15.40;99.90;;;;;;6157896;28;19965;-79
2021/07/27 02:50:14;;;;;;;;;;;15.50;99.90;;;;;;6080205;29;20284;-80
2021/07/27 02:53:15;;;;;;;;;;;15.50;99.90;;;;;;6180848;28;19915;-79
2021/07/27 02:56:16;;;;;;;;;;;15.30;99.90;;;;;;6164182;28;20287;-79
2021/07/27 02:59:16;;;;;;;;;;;15.30;99.90;;;;;;6180431;28;19926;-80
2021/07/27 03:02:17;;;;;;;;;;;15.10;99.90;;;;;;6181124;28;19969;-79
2021/07/27 03:05:17;;;;;;;;;;;15.10;99.90;;;;;;6097369;29;20419;-79
2021/07/27 03:08:20;;;;;;;;;;;15.00;99.90;;;;;;6097496;28;19923;-79
2021/07/27 03:11:20;;;;;;;;;;;14.80;99.90;;;;;;6075090;29;19938;-80
2021/07/27 03:14:21;;;;;;;;;;;14.90;99.90;;;;;;6075094;29;19911;-79
2021/07/27 03:17:24;;;;;;;;;;;15.00;99.90;;;;;;6075258;29;20277;-80
2021/07/27 03:20:27;;;;;;;;;;;14.90;99.90;;;;;;6076170;29;19954;-79
2021/07/27 03:23:28;;;;;;;;;;;14.70;99.90;;;;;;6083370;29;19903;-79
2021/07/27 03:26:28;;;;;;;;;;;15.00;99.90;;;;;;6097074;29;19903;-79
2021/07/27 03:29:29;;;;;;;;;;;14.90;99.90;;;;;;6098026;29;19922;-80
2021/07/27 03:32:29;;;;;;;;;;;14.90;99.90;;;;;;6179611;28;19918;-79
2021/07/27 03:35:30;;;;;;;;;;;14.90;99.90;;;;;;6164775;28;19922;-80
2021/07/27 03:38:31;;;;;;;;;;;14.80;99.90;;;;;;6094283;29;19911;-79
2021/07/27 03:41:31;;;;;;;;;;;14.70;99.90;;;;;;6163365;28;19918;-79
2021/07/27 03:44:32;;;;;;;;;;;14.70;99.90;;;;;;6096978;28;20357;-79
2021/07/27 03:47:32;;;;;;;;;;;14.70;99.90;;;;;;6176413;28;19911;-79
2021/07/27 03:50:33;;;;;;;;;;;14.70;99.90;;;;;;6090621;29;19918;-80
2021/07/27 03:53:33;;;;;;;;;;;14.50;99.90;;;;;;6098121;29;20377;-79
2021/07/27 03:56:34;;;;;;;;;;;14.90;99.90;;;;;;6163782;28;19933;-79
2021/07/27 03:59:34;;;;;;;;;;;14.90;99.90;;;;;;6073922;29;20341;-79
2021/07/27 04:02:35;;;;;;;;;;;14.90;99.90;;;;;;6074340;29;20522;-79
2021/07/27 04:05:35;;;;;;;;;;;15.00;99.90;;;;;;6073983;29;19966;-79
2021/07/27 04:08:36;;;;;;;;;;;14.90;99.90;;;;;;6155305;28;19919;-80
2021/07/27 04:11:36;;;;;;;;;;;15.10;99.90;;;;;;6073704;29;19919;-79
2021/07/27 04:14:37;;;;;;;;;;;15.00;99.90;;;;;;6073617;29;19918;-79
2021/07/27 04:17:37;;;;;;;;;;;14.70;99.90;;;;;;6073610;29;20373;-80
2021/07/27 04:20:38;;;;;;;;;;;15.00;99.90;;;;;;6075172;29;19903;-79
2021/07/27 04:23:38;;;;;;;;;;;14.90;99.90;;;;;;6074962;29;20250;-79
2021/07/27 04:26:39;;;;;;;;;;;14.90;99.90;;;;;;6073989;28;20350;-79
2021/07/27 04:29:39;;;;;;;;;;;15.20;99.90;;;;;;6073976;29;19911;-79
2021/07/27 04:32:40;;;;;;;;;;;15.30;99.90;;;;;;6147370;28;20453;-79
2021/07/27 04:35:40;;;;;;;;;;;15.60;99.90;;;;;;6074539;29;19913;-80
2021/07/27 04:38:41;;;;;;;;;;;15.90;99.90;;;;;;6075336;28;19916;-80
2021/07/27 04:41:41;;;;;;;;;;;16.00;99.90;;;;;;6057799;28;20435;-80
2021/07/27 04:44:42;;;;;;;;;;;16.30;99.90;;;;;;6057494;29;19961;-80
2021/07/27 04:47:42;;;;;;;;;;;16.40;99.90;;;;;;6074527;28;19943;-79
2021/07/27 04:50:45;;;;;;;;;;;16.50;99.90;;;;;;6074234;29;20365;-79
2021/07/27 04:53:47;;;;;;;;;;;16.70;99.90;;;;;;6071535;29;19911;-79
2021/07/27 04:56:48;;;;;;;;;;;16.90;99.90;;;;;;6160899;28;20044;-80
2021/07/27 04:59:48;;;;;;;;;;;17.00;99.90;;;;;;6095393;29;19910;-83
2021/07/27 05:02:49;;;;;;;;;;;17.20;99.90;;;;;;6173631;28;20829;-81
2021/07/27 05:05:53;;;;;;;;;;;17.40;99.90;;;;;;6078256;28;19911;-83
2021/07/27 05:08:53;;;;;;;;;;;17.70;99.90;;;;;;6056046;29;19931;-81
2021/07/27 05:11:57;;;;;;;;;;;18.10;99.90;;;;;;6064457;29;19911;-80
2021/07/27 05:14:57;;;;;;;;;;;18.40;99.90;;;;;;6177446;28;19949;-80
2021/07/27 05:17:58;;;;;;;;;;;18.60;99.90;;;;;;6096353;29;20346;-80
2021/07/27 05:20:59;;;;;;;;;;;18.80;99.90;;;;;;6095196;28;19922;-79
2021/07/27 05:23:59;;;;;;;;;;;18.80;99.90;;;;;;6177263;28;19915;-79
2021/07/27 05:27:00;;;;;;;;;;;19.00;99.90;;;;;;6079462;28;19907;-79
2021/07/27 05:30:00;;;;;;;;;;;19.20;99.90;;;;;;6079417;29;19923;-79
2021/07/27 05:33:03;;;;;;;;;;;19.40;99.90;;;;;;6174660;28;19911;-79
2021/07/27 05:36:05;;;;;;;;;;;19.20;99.90;;;;;;6074881;28;19974;-80
2021/07/27 05:39:06;;;;;;;;;;;19.10;99.90;;;;;;6162662;28;19907;-79
2021/07/27 05:42:06;;;;;;;;;;;19.00;99.90;;;;;;6167581;28;19962;-79
2021/07/27 05:45:07;;;;;;;;;;;19.20;99.90;;;;;;6072281;29;19904;-79
2021/07/27 05:48:08;;;;;;;;;;;19.70;99.90;;;;;;6072147;29;20013;-79
2021/07/27 05:51:10;;;;;;;;;;;20.10;99.90;;;;;;6072213;29;19919;-79
2021/07/27 05:54:10;;;;;;;;;;;20.40;99.90;;;;;;6072200;29;19911;-79
2021/07/27 05:57:14;;;;;;;;;;;21.00;99.90;;;;;;6073295;29;19969;-79
2021/07/27 06:00:14;;;;;;;;;;;21.30;99.90;;;;;;6072097;29;19911;-82
2021/07/27 06:03:15;;;;;;;;;;;21.50;99.90;;;;;;6071945;29;19994;-81
2021/07/27 06:06:15;;;;;;;;;;;22.30;99.90;;;;;;6072044;29;19945;-79
2021/07/27 06:09:16;;;;;;;;;;;22.20;99.90;;;;;;6071827;29;19974;-79
2021/07/27 06:12:17;;;;;;;;;;;21.90;99.90;;;;;;6153035;28;19907;-79
2021/07/27 06:15:17;;;;;;;;;;;22.60;99.90;;;;;;6071679;29;19915;-79
2021/07/27 06:18:18;;;;;;;;;;;22.90;99.90;;;;;;6073550;29;20377;-79
2021/07/27 06:21:18;;;;;;;;;;;23.10;99.70;;;;;;6075593;29;19918;-79
2021/07/27 06:24:19;;;;;;;;;;;23.90;99.70;;;;;;6060475;29;20257;-80
2021/07/27 06:27:19;;;;;;;;;;;23.30;99.40;;;;;;6077162;29;19919;-79
2021/07/27 06:30:20;;;;;;;;;;;23.80;98.70;;;;;;6077144;29;20520;-80
2021/07/27 06:33:20;;;;;;;;;;;24.00;98.40;;;;;;6077164;29;19915;-79
2021/07/27 06:36:21;;;;;;;;;;;24.30;97.90;;;;;;6099289;29;19957;-79
2021/07/27 06:39:21;;;;;;;;;;;24.40;97.20;;;;;;6162614;28;19912;-79
2021/07/27 06:42:22;;;;;;;;;;;24.40;96.40;;;;;;6075593;29;20376;-79
2021/07/27 06:45:22;;;;;;;;;;;24.80;95.90;;;;;;6076621;29;19911;-79
2021/07/27 06:48:23;;;;;;;;;;;25.20;95.00;;;;;;6075899;29;19907;-79
2021/07/27 06:51:24;;;;;;;;;;;25.30;94.10;;;;;;6075534;29;20345;-79
2021/07/27 06:54:24;;;;;;;;;;;24.00;93.80;;;;;;6085212;29;19919;-79
2021/07/27 06:57:26;;;;;;;;;;;25.30;94.00;;;;;;6168268;28;19907;-79
2021/07/27 07:00:26;;;;;;;;;;;25.50;93.40;;;;;;6157856;28;19911;-79
2021/07/27 07:03:27;;;;;;;;;;;25.50;93.10;;;;;;6076280;29;19958;-79
2021/07/27 07:06:28;;;;;;;;;;;25.20;93.10;;;;;;6076720;29;20360;-79
2021/07/27 07:09:28;;;;;;;;;;;25.30;94.60;;;;;;6076197;29;19947;-79
2021/07/27 07:12:29;;;;;;;;;;;25.40;94.10;;;;;;6165188;28;20345;-79
2021/07/27 07:15:29;;;;;;;;;;;24.90;92.80;;;;;;6076210;29;19911;-79
2021/07/27 07:18:30;;;;;;;;;;;25.00;93.10;;;;;;6095044;29;19927;-79
2021/07/27 07:21:30;;;;;;;;;;;24.90;93.70;;;;;;6180212;28;19911;-79
2021/07/27 07:24:31;;;;;;;;;;;24.70;94.00;;;;;;6096986;29;19903;-80
2021/07/27 07:27:31;;;;;;;;;;;24.50;94.50;;;;;;6179957;28;19915;-78
2021/07/27 07:30:32;;;;;;;;;;;24.60;96.10;;;;;;6097190;29;20353;-80
2021/07/27 07:33:32;;;;;;;;;;;24.80;95.40;;;;;;6098402;29;19933;-79
2021/07/27 07:36:33;;;;;;;;;;;25.00;94.60;;;;;;6163134;28;19907;-80
2021/07/27 07:39:34;;;;;;;;;;;25.10;95.60;;;;;;6179506;28;19911;-79
2021/07/27 07:42:35;;;;;;;;;;;25.20;95.90;;;;;;6179622;28;19903;-79
2021/07/27 07:45:35;;;;;;;;;;;25.30;95.60;;;;;;6079841;29;20000;-79
2021/07/27 07:48:36;;;;;;;;;;;25.40;94.70;;;;;;6074127;29;19950;-79
2021/07/27 07:51:43;;;;;;;;;;;25.20;95.40;;;;;;6075829;29;19912;-79
2021/07/27 07:54:43;;;;;;;;;;;25.20;95.20;;;;;;6074251;29;19911;-80
2021/07/27 07:57:44;;;;;;;;;;;25.30;95.50;;;;;;6073961;29;19958;-80
2021/07/27 08:00:44;;;;;;;;;;;25.30;95.20;;;;;;6058642;29;19912;-80
2021/07/27 08:03:45;;;;;;;;;;;25.30;95.90;;;;;;6075495;29;19911;-79
2021/07/27 08:06:45;;;;;;;;;;;25.30;96.40;;;;;;6082305;29;19907;-80
2021/07/27 08:09:46;;;;;;;;;;;25.50;96.00;;;;;;6162067;28;19973;-80
2021/07/27 08:12:47;;;;;;;;;;;25.60;95.50;;;;;;6088526;29;19946;-80
2021/07/27 08:15:49;;;;;;;;;;;26.40;95.80;;;;;;6075262;29;20415;-80
2021/07/27 08:18:49;;;;;;;;;;;27.30;94.00;;;;;;6082794;29;19938;-80
2021/07/27 08:21:50;;;;;;;;;;;27.90;91.90;;;;;;6057910;29;19911;-80
2021/07/27 08:24:50;;;;;;;;;;;28.30;90.10;;;;;;6073835;29;19954;-80
2021/07/27 08:27:51;;;;;;;;;;;28.70;88.50;;;;;;6073498;29;19904;-80
2021/07/27 08:30:51;;;;;;;;;;;28.90;89.40;;;;;;6074666;29;19970;-80
2021/07/27 08:33:52;;;;;;;;;;;29.20;86.30;;;;;;6073740;29;19903;-79
2021/07/27 08:36:52;;;;;;;;;;;29.20;85.50;;;;;;6073684;29;19922;-79
2021/07/27 08:39:59;;;;;;;;;;;29.70;83.00;;;;;;6073349;29;19922;-79
2021/07/27 08:42:59;;;;;;;;;;;29.60;83.90;;;;;;6073080;29;19918;-79
2021/07/27 08:46:00;;;;;;;;;;;29.50;81.90;;;;;;6076037;29;19915;-79
2021/07/27 08:49:00;;;;;;;;;;;29.30;81.10;;;;;;6073673;28;20247;-79
2021/07/27 08:52:01;;;;;;;;;;;29.30;80.50;;;;;;6074454;29;19911;-80
2021/07/27 08:55:03;;;;;;;;;;;29.10;81.90;;;;;;6081130;29;19910;-79
2021/07/27 08:58:04;;;;;;;;;;;29.60;82.90;;;;;;6178431;28;19907;-79
2021/07/27 09:01:04;;;;;;;;;;;30.10;81.90;;;;;;6096868;29;20308;-79
2021/07/27 09:04:05;;;;;;;;;;;30.40;80.50;;;;;;6087087;29;19907;-79
2021/07/27 09:07:05;;;;;;;;;;;30.30;79.80;;;;;;6074241;29;19934;-79
2021/07/27 09:10:12;;;;;;;;;;;30.30;78.30;;;;;;6075681;29;19966;-80
2021/07/27 09:13:13;;;;;;;;;;;29.70;74.90;;;;;;6096523;29;19903;-79
2021/07/27 09:16:16;;;;;;;;;;;29.60;78.80;;;;;;6156323;28;20342;-79
2021/07/27 09:19:17;;;;;;;;;;;30.00;76.00;;;;;;6072824;29;19915;-79
2021/07/27 09:22:17;;;;;;;;;;;30.10;78.30;;;;;;6072609;29;19916;-80
2021/07/27 09:25:18;;;;;;;;;;;30.50;76.90;;;;;;6073685;29;19911;-79
2021/07/27 09:28:19;;;;;;;;;;;30.80;74.00;;;;;;6091254;29;20227;-80
2021/07/27 09:31:26;;;;;;;;;;;30.40;74.00;;;;;;6177560;28;19911;-80
2021/07/27 09:34:27;;;;;;;;;;;31.00;70.70;;;;;;6096068;29;19907;-80
2021/07/27 09:37:27;;;;;;;;;;;30.80;72.30;;;;;;6168360;28;20020;-80
2021/07/27 09:40:28;;;;;;;;;;;30.70;73.40;;;;;;6162671;28;19911;-80
2021/07/27 09:43:28;;;;;;;;;;;31.00;73.20;;;;;;6073451;29;19911;-80
2021/07/27 09:46:30;;;;;;;;;;;31.90;73.90;;;;;;6073603;29;20381;-79
2021/07/27 09:49:30;;;;;;;;;;;32.10;70.50;;;;;;6083242;29;20411;-79
2021/07/27 09:52:31;;;;;;;;;;;32.40;70.20;;;;;;6176563;28;19997;-80
2021/07/27 09:55:31;;;;;;;;;;;32.50;67.80;;;;;;6161391;28;19927;-80
2021/07/27 09:58:32;;;;;;;;;;;32.70;69.70;;;;;;6075886;29;19911;-79
2021/07/27 10:01:32;;;;;;;;;;;32.90;66.60;;;;;;6177506;28;19911;-80
2021/07/27 10:04:34;;;;;;;;;;;33.00;67.00;;;;;;6160349;28;20321;-80
2021/07/27 10:07:34;;;;;;;;;;;32.80;64.60;;;;;;6176077;28;19949;-79
2021/07/27 10:10:36;;;;;;;;;;;32.60;66.10;;;;;;6095271;29;19927;-79
2021/07/27 10:13:39;;;;;;;;;;;32.40;66.60;;;;;;6095696;29;20368;-80
2021/07/27 10:16:40;;;;;;;;;;;32.20;62.90;;;;;;6095647;29;20737;-79
2021/07/27 10:19:45;;;;;;;;;;;32.00;68.30;;;;;;6079139;29;19903;-80
2021/07/27 10:22:46;;;;;;;;;;;32.10;67.80;;;;;;6159333;28;19911;-80
2021/07/27 10:25:53;;;;;;;;;;;31.40;69.40;;;;;;6176753;28;19942;-79
2021/07/27 10:28:54;;;;;;;;;;;31.40;66.40;;;;;;6078014;28;19913;-79
2021/07/27 10:31:55;;;;;;;;;;;31.50;66.40;;;;;;6071673;29;20099;-79
2021/07/27 10:34:55;;;;;;;;;;;31.40;69.70;;;;;;6084048;29;19927;-80
2021/07/27 10:38:08;;;;;;;;;;;31.20;68.90;;;;;;6093673;29;20226;-80
2021/07/27 10:41:13;;;;;;;;;;;31.40;69.10;;;;;;6160410;28;19954;-79
2021/07/27 10:44:20;;;;;;;;;;;31.60;69.20;;;;;;6176010;28;20422;-80
2021/07/27 10:47:21;;;;;;;;;;;32.00;67.10;;;;;;6094027;28;19915;-80
2021/07/27 10:50:26;;;;;;;;;;;32.00;65.50;;;;;;6176449;28;19965;-80
2021/07/27 10:53:26;;;;;;;;;;;31.50;66.90;;;;;;6091767;29;19911;-80
2021/07/27 10:56:31;;;;;;;;;;;31.30;66.30;;;;;;6071519;29;19910;-79
2021/07/27 10:59:35;;;;;;;;;;;31.10;66.30;;;;;;6080740;29;20270;-80
2021/07/27 11:02:36;;;;;;;;;;;30.80;67.50;;;;;;6070854;28;20356;-79
2021/07/27 11:05:37;;;;;;;;;;;30.60;68.80;;;;;;6177685;28;19947;-79
2021/07/27 11:08:37;;;;;;;;;;;30.40;71.60;;;;;;6098401;29;19923;-79
2021/07/27 11:11:48;;;;;;;;;;;30.50;69.20;;;;;;6098683;29;19926;-81
2021/07/27 11:14:48;;;;;;;;;;;30.60;69.90;;;;;;6098424;29;19910;-79
2021/07/27 11:18:02;;;;;;;;;;;30.80;69.50;;;;;;6081964;29;19911;-80
2021/07/27 11:21:05;;;;;;;;;;;31.10;68.90;;;;;;6074844;29;19915;-80
2021/07/27 11:24:06;;;;;;;;;;;31.10;67.90;;;;;;6075411;29;20355;-80
2021/07/27 11:27:11;;;;;;;;;;;31.00;69.30;;;;;;6074853;29;19915;-80
2021/07/27 11:30:13;;;;;;;;;;;31.00;67.70;;;;;;6074541;28;19919;-81
2021/07/27 11:33:19;;;;;;;;;;;30.90;68.30;;;;;;6074766;29;20030;-80
2021/07/27 11:36:23;;;;;;;;;;;30.70;69.50;;;;;;6074079;29;20074;-80
2021/07/27 11:39:24;;;;;;;;;;;30.50;69.00;;;;;;6074518;29;19903;-80
2021/07/27 11:42:32;;;;;;;;;;;30.50;69.20;;;;;;6074516;29;19911;-81
2021/07/27 11:45:33;;;;;;;;;;;30.40;68.50;;;;;;6074993;29;19912;-80
2021/07/27 11:48:34;;;;;;;;;;;30.30;70.10;;;;;;6073658;28;19927;-83
2021/07/27 11:51:35;;;;;;;;;;;30.40;71.60;;;;;;6061498;29;19957;-80
2021/07/27 11:54:35;;;;;;;;;;;30.30;70.80;;;;;;6075307;29;19915;-80
2021/07/27 11:57:36;;;;;;;;;;;30.30;70.80;;;;;;6074191;29;19911;-80
2021/07/27 12:00:36;;;;;;;;;;;30.40;72.70;;;;;;6087106;29;19914;-80
2021/07/27 12:03:38;;;;;;;;;;;30.40;71.50;;;;;;6162780;28;19911;-79
2021/07/27 12:06:50;;;;;;;;;;;30.30;71.80;;;;;;6074346;29;19915;-79
2021/07/27 12:09:51;;;;;;;;;;;30.00;70.10;;;;;;6089279;29;19982;-80
2021/07/27 12:12:51;;;;;;;;;;;29.70;72.10;;;;;;6096520;29;19911;-80
2021/07/27 12:15:52;;;;;;;;;;;29.10;73.70;;;;;;6096851;29;19903;-80
2021/07/27 12:18:52;;;;;;;;;;;28.70;74.50;;;;;;6085002;29;19918;-84
2021/07/27 12:21:55;;;;;;;;;;;28.50;76.40;;;;;;6074867;29;19903;-80
2021/07/27 12:24:55;;;;;;;;;;;28.30;76.80;;;;;;6074852;29;19914;-79
2021/07/27 12:27:56;;;;;;;;;;;28.10;78.00;;;;;;6074688;29;19911;-80
2021/07/27 12:30:56;;;;;;;;;;;28.10;78.90;;;;;;6073513;29;19986;-79
2021/07/27 12:33:57;;;;;;;;;;;28.10;78.10;;;;;;6074998;29;19957;-80
2021/07/27 12:36:57;;;;;;;;;;;28.10;78.40;;;;;;6074956;29;19942;-80
2021/07/27 12:39:58;;;;;;;;;;;28.20;78.90;;;;;;6090116;29;20348;-80
2021/07/27 12:42:58;;;;;;;;;;;28.30;78.70;;;;;;6097698;29;19907;-85
2021/07/27 12:45:59;;;;;;;;;;;28.10;78.30;;;;;;6095842;29;20408;-84
2021/07/27 12:49:00;;;;;;;;;;;28.30;77.90;;;;;;6088104;29;19935;-81
2021/07/27 12:52:01;;;;;;;;;;;28.20;79.40;;;;;;6072931;29;19923;-80
2021/07/27 12:55:02;;;;;;;;;;;28.30;80.00;;;;;;6074195;29;19919;-82
2021/07/27 12:58:02;;;;;;;;;;;28.30;78.90;;;;;;6057760;29;19903;-80
2021/07/27 13:01:03;;;;;;;;;;;28.40;78.90;;;;;;6072096;29;20644;-81
2021/07/27 13:04:03;;;;;;;;;;;28.30;79.10;;;;;;6073612;29;19907;-81
2021/07/27 13:07:05;;;;;;;;;;;28.30;78.60;;;;;;6057206;29;19989;-79
2021/07/27 13:10:05;;;;;;;;;;;28.20;80.60;;;;;;6072397;28;19919;-86
2021/07/27 13:13:06;;;;;;;;;;;28.60;79.20;;;;;;6138111;28;19978;-82
2021/07/27 13:16:07;;;;;;;;;;;28.60;79.10;;;;;;6092758;28;19911;-84
2021/07/27 13:19:07;;;;;;;;;;;28.80;78.00;;;;;;6177782;28;19957;-81
2021/07/27 13:22:08;;;;;;;;;;;29.10;78.10;;;;;;6177741;28;19911;-84
2021/07/27 13:25:08;;;;;;;;;;;29.10;75.50;;;;;;6177195;28;19907;-85
2021/07/27 13:28:09;;;;;;;;;;;29.10;76.60;;;;;;6160176;28;19994;-84
2021/07/27 13:31:09;;;;;;;;;;;29.10;76.80;;;;;;6161028;28;19911;-82
2021/07/27 13:34:10;;;;;;;;;;;29.00;76.60;;;;;;6177567;28;19922;-82
2021/07/27 13:37:11;;;;;;;;;;;28.90;76.00;;;;;;6094282;29;19922;-83
2021/07/27 13:40:12;;;;;;;;;;;28.90;75.60;;;;;;6168768;28;20246;-84
2021/07/27 13:43:12;;;;;;;;;;;28.50;76.60;;;;;;6056522;28;19911;-84
2021/07/27 13:46:13;;;;;;;;;;;29.00;77.80;;;;;;6056467;29;19916;-84
2021/07/27 13:49:14;;;;;;;;;;;29.20;79.80;;;;;;6072094;29;19978;-84
2021/07/27 13:52:15;;;;;;;;;;;29.30;76.40;;;;;;6056113;29;19942;-84
2021/07/27 13:55:15;;;;;;;;;;;29.20;74.20;;;;;;6073118;29;19973;-84
2021/07/27 13:58:16;;;;;;;;;;;29.30;77.30;;;;;;6071502;28;19916;-83
2021/07/27 14:01:16;;;;;;;;;;;29.40;74.80;;;;;;6078215;29;19910;-85
2021/07/27 14:04:17;;;;;;;;;;;29.30;72.90;;;;;;6055588;29;19912;-85
2021/07/27 14:07:17;;;;;;;;;;;29.10;75.30;;;;;;6071276;29;19907;-86
2021/07/27 14:10:19;;;;;;;;;;;28.90;75.60;;;;;;6055290;29;20066;-86
2021/07/27 14:13:19;;;;;;;;;;;28.90;75.70;;;;;;6071529;29;19903;-85
2021/07/27 14:16:20;;;;;;;;;;;28.90;74.30;;;;;;6055500;29;20007;-83
2021/07/27 14:19:21;;;;;;;;;;;28.90;74.80;;;;;;6073151;29;19916;-83
2021/07/27 14:22:21;;;;;;;;;;;28.80;76.00;;;;;;6086549;29;19915;-83
2021/07/27 14:25:24;;;;;;;;;;;28.80;73.40;;;;;;6142515;28;19912;-82
2021/07/27 14:28:24;;;;;;;;;;;28.70;76.40;;;;;;6071646;29;19903;-83
2021/07/27 14:31:25;;;;;;;;;;;28.50;74.60;;;;;;6082972;28;19926;-83
2021/07/27 14:34:25;;;;;;;;;;;28.30;75.50;;;;;;6152043;28;19910;-83
2021/07/27 14:37:26;;;;;;;;;;;28.30;72.20;;;;;;6071242;29;19904;-82
2021/07/27 14:40:26;;;;;;;;;;;28.20;76.40;;;;;;6074647;29;19911;-82
2021/07/27 14:43:27;;;;;;;;;;;28.20;78.40;;;;;;6075628;29;19904;-82
2021/07/27 14:46:28;;;;;;;;;;;28.30;78.30;;;;;;6089698;28;19933;-83
2021/07/27 14:49:29;;;;;;;;;;;28.30;78.30;;;;;;6097729;29;20349;-83
2021/07/27 14:52:29;;;;;;;;;;;29.50;75.70;;;;;;6162858;28;20255;-82
2021/07/27 14:55:30;;;;;;;;;;;28.10;76.00;;;;;;6074833;28;19911;-83
2021/07/27 14:58:30;;;;;;;;;;;28.20;76.80;;;;;;6077696;28;19915;-84
2021/07/27 15:01:31;;;;;;;;;;;28.10;76.70;;;;;;6059536;29;20389;-83
2021/07/27 15:04:31;;;;;;;;;;;28.00;77.60;;;;;;6059088;28;20018;-84
2021/07/27 15:07:33;;;;;;;;;;;27.80;79.20;;;;;;6075341;29;19907;-83
2021/07/27 15:10:34;;;;;;;;;;;27.70;77.00;;;;;;6058467;29;19922;-82
2021/07/27 15:13:34;;;;;;;;;;;27.60;80.70;;;;;;6065536;29;20054;-82
2021/07/27 15:16:35;;;;;;;;;;;27.60;80.10;;;;;;6087605;29;19913;-82
2021/07/27 15:19:36;;;;;;;;;;;27.50;79.10;;;;;;6087684;29;19911;-83
2021/07/27 15:22:36;;;;;;;;;;;27.50;80.80;;;;;;6096149;28;20262;-83
2021/07/27 15:25:37;;;;;;;;;;;27.40;79.40;;;;;;6062702;28;19918;-83
2021/07/27 15:28:37;;;;;;;;;;;27.40;78.60;;;;;;6180060;28;19911;-83
2021/07/27 15:31:38;;;;;;;;;;;27.30;79.80;;;;;;6169315;28;19911;-86
2021/07/27 15:34:38;;;;;;;;;;;27.50;81.50;;;;;;6068596;29;19919;-85
2021/07/27 15:37:39;;;;;;;;;;;27.10;78.90;;;;;;6171478;28;19903;-86
2021/07/27 15:40:40;;;;;;;;;;;27.00;78.20;;;;;;6163236;28;19903;-85
2021/07/27 15:43:40;;;;;;;;;;;26.90;78.40;;;;;;6154168;28;20305;-82
2021/07/27 15:46:41;;;;;;;;;;;26.80;80.30;;;;;;6074030;29;19950;-85
2021/07/27 15:49:42;;;;;;;;;;;26.70;81.70;;;;;;6080231;29;19907;-87
2021/07/27 15:52:42;;;;;;;;;;;26.70;79.80;;;;;;6073273;29;19911;-85
2021/07/27 15:55:43;;;;;;;;;;;26.80;80.00;;;;;;6066699;28;19974;-90
2021/07/27 15:58:44;;;;;;;;;;;27.10;81.00;;;;;;6060395;28;19904;-85
2021/07/27 16:01:44;;;;;;;;;;;26.80;79.40;;;;;;6059823;29;19911;-86
2021/07/27 16:04:45;;;;;;;;;;;26.80;81.10;;;;;;6060661;28;19950;-89
2021/07/27 16:07:45;;;;;;;;;;;26.80;82.20;;;;;;6072860;28;19930;-86
2021/07/27 16:10:46;;;;;;;;;;;26.80;81.30;;;;;;6076016;29;20004;-86
2021/07/27 16:13:47;;;;;;;;;;;26.60;84.50;;;;;;6162457;28;19911;-83
2021/07/27 16:16:47;;;;;;;;;;;26.60;82.70;;;;;;6162652;28;19986;-85
2021/07/27 16:19:48;;;;;;;;;;;26.50;83.20;;;;;;6150517;28;19958;-86
2021/07/27 16:22:48;;;;;;;;;;;26.40;82.30;;;;;;6179066;28;19903;-89
2021/07/27 16:26:07;;;;;;;;;;;26.50;86.30;;;;;;6073926;28;20304;-92
2021/07/27 16:29:07;;;;;;;;;;;28.20;85.10;;;;;;6086905;29;19910;-90
2021/07/27 16:32:31;;;;;;;;;;;26.40;86.10;;;;;;6072271;28;20370;-93
2021/07/27 16:35:36;;;;;;;;;;;27.00;83.40;;;;;;6152808;28;20004;-90
2021/07/27 16:38:38;;;;;;;;;;;26.20;83.30;;;;;;6126080;28;19918;-87
2021/07/27 16:41:39;;;;;;;;;;;26.20;83.90;;;;;;6153587;28;19910;-87
2021/07/27 16:44:39;;;;;;;;;;;26.10;86.20;;;;;;6129972;28;20348;-86
2021/07/27 16:47:40;;;;;;;;;;;26.00;86.50;;;;;;6136465;28;19933;-88
2021/07/27 16:50:41;;;;;;;;;;;26.00;89.60;;;;;;6128565;28;19921;-87
2021/07/27 16:53:42;;;;;;;;;;;25.80;89.20;;;;;;6122317;28;19911;-89
2021/07/27 16:56:43;;;;;;;;;;;25.00;91.10;;;;;;6142097;28;20054;-85
2021/07/27 16:59:43;;;;;;;;;;;25.80;89.10;;;;;;6141799;28;19902;-87
2021/07/27 17:02:44;;;;;;;;;;;25.80;87.80;;;;;;6132703;28;19910;-86
2021/07/27 17:05:44;;;;;;;;;;;25.70;89.50;;;;;;6129004;28;19966;-89
2021/07/27 17:08:45;;;;;;;;;;;25.60;87.90;;;;;;6129981;28;20060;-83
2021/07/27 17:11:56;;;;;;;;;;;25.60;86.00;;;;;;6096506;29;19912;-92
2021/07/27 17:14:57;;;;;;;;;;;27.10;87.30;;;;;;6064229;29;19938;-92
2021/07/27 17:18:01;;;;;;;;;;;24.70;90.70;;;;;;6047126;29;19911;-90
2021/07/27 17:21:01;;;;;;;;;;;27.20;94.00;;;;;;6127036;28;19911;-89
2021/07/27 17:24:02;;;;;;;;;;;25.80;93.80;;;;;;6125774;28;19950;-90
2021/07/27 17:27:03;;;;;;;;;;;25.80;94.90;;;;;;6045397;29;19978;-90
2021/07/27 17:30:04;;;;;;;;;;;25.20;94.60;;;;;;6045082;29;19920;-90
2021/07/27 17:33:06;;;;;;;;;;;23.60;93.30;;;;;;6046694;28;19935;-90
2021/07/27 17:36:10;;;;;;;;;;;24.80;94.40;;;;;;6055796;28;20013;-91
2021/07/27 17:39:13;;;;;;;;;;;24.90;93.70;;;;;;6056322;29;20269;-89
2021/07/27 17:42:13;;;;;;;;;;;23.30;95.90;;;;;;6123850;28;20002;-82
2021/07/27 17:45:14;;;;;;;;;;;23.90;95.80;;;;;;6055228;28;20354;-82
2021/07/27 17:48:14;;;;;;;;;;;24.20;96.60;;;;;;6053372;28;20978;-80
2021/07/27 17:51:15;;;;;;;;;;;24.10;97.50;;;;;;6051754;28;19938;-83
2021/07/27 17:54:17;;;;;;;;;;;24.00;98.40;;;;;;6052261;29;20468;-86
2021/07/27 17:57:18;;;;;;;;;;;24.10;99.00;;;;;;6054803;29;20331;-86